sensor_id;sensor_type;location;lat;lon;timestamp;pressure;altitude;pressure_sealevel;temperature;humidity
31162;BME280;17796;49.296;-117.656;2023-01-26T00:03:20;98100;;;1.88327;58.87294
31162;BME280;17796;49.296;-117.656;2023-01-26T00:18:25;98100;;;0.63745;62.5091
31162;BME280;17796;49.296;-117.656;2023-01-26T00:33:30;98200;;;0.82196;61.41519
31162;BME280;17796;49.296;-117.656;2023-01-26T00:48:35;98200;;;-0.18916;64.25224
31162;BME280;17796;49.296;-117.656;2023-01-26T01:03:38;98200;;;-0.22664;65.24153
31162;BME280;17796;49.296;-117.656;2023-01-26T01:18:42;98200;;;-0.59469;66.5092
31162;BME280;17796;49.296;-117.656;2023-01-26T01:33:47;98200;;;-0.79031;66.32539
31162;BME280;17796;49.296;-117.656;2023-01-26T01:48:52;98200;;;-2.29775;73.18368
31162;BME280;17796;49.296;-117.656;2023-01-26T02:04:00;98200;;;-0.7125;66.70272
31162;BME280;17796;49.296;-117.656;2023-01-26T02:19:09;98200;;;-0.11454;64.26251
31162;BME280;17796;49.296;-117.656;2023-01-26T02:34:20;98200;;;-1.53847;69.28033
31162;BME280;17796;49.296;-117.656;2023-01-26T02:49:24;98200;;;-0.62835;66.35848
31162;BME280;17796;49.296;-117.656;2023-01-26T03:04:27;98200;;;-0.64137;66.2974
31162;BME280;17796;49.296;-117.656;2023-01-26T03:19:31;98100;;;-0.52324;65.39152
31162;BME280;17796;49.296;-117.656;2023-01-26T03:34:34;98200;;;-1.12184;67.58641
31162;BME280;17796;49.296;-117.656;2023-01-26T03:49:38;98200;;;-1.10151;67.39667
31162;BME280;17796;49.296;-117.656;2023-01-26T04:04:42;98200;;;-1.01514;67.91103
31162;BME280;17796;49.296;-117.656;2023-01-26T04:19:46;98200;;;-2.84362;75.59621
31162;BME280;17796;49.296;-117.656;2023-01-26T04:34:50;98200;;;-1.1663;68.73006
31162;BME280;17796;49.296;-117.656;2023-01-26T04:49:54;98200;;;-0.73854;67.19855
31162;BME280;17796;49.296;-117.656;2023-01-26T05:04:58;98200;;;-1.55594;70.95854
31162;BME280;17796;49.296;-117.656;2023-01-26T05:20:01;98100;;;-0.70838;67.2882
31162;BME280;17796;49.296;-117.656;2023-01-26T05:35:06;98100;;;-0.91416;68.34464
31162;BME280;17796;49.296;-117.656;2023-01-26T05:50:12;98200;;;-1.12089;69.58526
31162;BME280;17796;49.296;-117.656;2023-01-26T06:05:16;98100;;;-1.1085;69.0129
31162;BME280;17796;49.296;-117.656;2023-01-26T06:20:20;98100;;;-0.53467;67.12553
31162;BME280;17796;49.296;-117.656;2023-01-26T06:35:24;98100;;;-1.01133;68.6872
31162;BME280;17796;49.296;-117.656;2023-01-26T06:50:30;98100;;;-0.72425;67.62608
31162;BME280;17796;49.296;-117.656;2023-01-26T07:05:37;98100;;;-1.5172;71.44141
31162;BME280;17796;49.296;-117.656;2023-01-26T07:20:41;98100;;;-1.74679;71.67329
31162;BME280;17796;49.296;-117.656;2023-01-26T07:35:44;98100;;;-0.74553;69.37371
31162;BME280;17796;49.296;-117.656;2023-01-26T07:50:49;98100;;;-0.75982;69.97912
31162;BME280;17796;49.296;-117.656;2023-01-26T08:05:54;98100;;;-1.26792;71.00353
31162;BME280;17796;49.296;-117.656;2023-01-26T08:20:58;98100;;;-1.02022;70.68499
31162;BME280;17796;49.296;-117.656;2023-01-26T08:36:03;98000;;;-1.82491;73.26247
31162;BME280;17796;49.296;-117.656;2023-01-26T08:51:09;98000;;;-1.09993;70.91334
31162;BME280;17796;49.296;-117.656;2023-01-26T09:06:13;98000;;;-0.72044;70.64327
31162;BME280;17796;49.296;-117.656;2023-01-26T09:21:17;98000;;;-0.66297;71.11767
31162;BME280;17796;49.296;-117.656;2023-01-26T09:36:22;98000;;;-0.28824;69.67112
31162;BME280;17796;49.296;-117.656;2023-01-26T09:51:27;98000;;;-0.16852;69.81711
31162;BME280;17796;49.296;-117.656;2023-01-26T10:06:34;98000;;;-0.2006;70.57502
31162;BME280;17796;49.296;-117.656;2023-01-26T10:21:41;98000;;;0.03853;69.4827
31162;BME280;17796;49.296;-117.656;2023-01-26T10:36:48;98000;;;-0.27776;71.01735
31162;BME280;17796;49.296;-117.656;2023-01-26T10:52:04;98000;;;-0.46481;70.60339
31162;BME280;17796;49.296;-117.656;2023-01-26T11:07:21;97900;;;0.01947;69.74948
31162;BME280;17796;49.296;-117.656;2023-01-26T11:22:29;97900;;;-0.94909;72.80852
31162;BME280;17796;49.296;-117.656;2023-01-26T11:37:42;97900;;;-0.7179;70.99854
31162;BME280;17796;49.296;-117.656;2023-01-26T11:52:53;97900;;;-1.28284;72.51306
31162;BME280;17796;49.296;-117.656;2023-01-26T12:08:10;97900;;;-0.50419;69.70923
31162;BME280;17796;49.296;-117.656;2023-01-26T12:23:22;97900;;;-0.37494;69.8723
31162;BME280;17796;49.296;-117.656;2023-01-26T12:38:37;97800;;;-1.07992;71.799
31162;BME280;17796;49.296;-117.656;2023-01-26T12:53:50;97800;;;0.0833;68.83997
31162;BME280;17796;49.296;-117.656;2023-01-26T13:09:00;97800;;;-0.43655;69.51211
31162;BME280;17796;49.296;-117.656;2023-01-26T13:24:55;97800;;;0.26273;68.47531
31162;BME280;17796;49.296;-117.656;2023-01-26T13:40:00;97800;;;-0.90653;72.07525
31162;BME280;17796;49.296;-117.656;2023-01-26T13:55:21;97800;;;-0.13772;70.10948
31162;BME280;17796;49.296;-117.656;2023-01-26T14:10:26;97800;;;-0.20917;71.30173
31162;BME280;17796;49.296;-117.656;2023-01-26T14:25:30;97800;;;-0.88494;73.83967
31162;BME280;17796;49.296;-117.656;2023-01-26T14:40:35;97800;;;-0.19837;70.97994
31162;BME280;17796;49.296;-117.656;2023-01-26T14:55:45;97800;;;-0.84207;74.36169
31162;BME280;17796;49.296;-117.656;2023-01-26T15:10:54;97800;;;-0.55531;72.67781
31162;BME280;17796;49.296;-117.656;2023-01-26T15:26:07;97700;;;-0.19901;70.70095
31162;BME280;17796;49.296;-117.656;2023-01-26T15:41:13;97700;;;-0.40669;71.67935
31162;BME280;17796;49.296;-117.656;2023-01-26T15:56:17;97700;;;-0.60326;73.26354
31162;BME280;17796;49.296;-117.656;2023-01-26T16:11:23;97700;;;-0.10025;71.41989
31162;BME280;17796;49.296;-117.656;2023-01-26T16:26:30;97700;;;0.67588;67.90236
31162;BME280;17796;49.296;-117.656;2023-01-26T16:41:35;97700;;;-1.39017;73.85025
31162;BME280;17796;49.296;-117.656;2023-01-26T16:56:39;97700;;;-0.72394;71.29301
31162;BME280;17796;49.296;-117.656;2023-01-26T17:11:42;97700;;;-0.50292;69.99361
31162;BME280;17796;49.296;-117.656;2023-01-26T17:26:46;97700;;;0.50407;65.89898
31162;BME280;17796;49.296;-117.656;2023-01-26T17:41:49;97700;;;1.29608;64.27546
31162;BME280;17796;49.296;-117.656;2023-01-26T17:56:53;97700;;;1.76862;64.61911
31162;BME280;17796;49.296;-117.656;2023-01-26T18:11:58;97600;;;1.30275;66.88158
31162;BME280;17796;49.296;-117.656;2023-01-26T18:27:02;97600;;;2.07794;63.11256
31162;BME280;17796;49.296;-117.656;2023-01-26T18:42:06;97600;;;1.14619;65.82137
31162;BME280;17796;49.296;-117.656;2023-01-26T18:57:10;97600;;;1.90867;63.82398
31162;BME280;17796;49.296;-117.656;2023-01-26T19:12:14;97500;;;2.23767;62.98433
31162;BME280;17796;49.296;-117.656;2023-01-26T19:27:17;97500;;;1.20399;65.45151
31162;BME280;17796;49.296;-117.656;2023-01-26T19:42:21;97500;;;0.915;65.03692
31162;BME280;17796;49.296;-117.656;2023-01-26T19:57:25;97500;;;1.98139;64.0929
31162;BME280;17796;49.296;-117.656;2023-01-26T20:12:28;97500;;;2.03792;62.0023
31162;BME280;17796;49.296;-117.656;2023-01-26T20:27:32;97400;;;3.45525;58.44236
31162;BME280;17796;49.296;-117.656;2023-01-26T20:42:35;97400;;;3.61435;57.92941
31162;BME280;17796;49.296;-117.656;2023-01-26T20:57:39;97400;;;2.55779;59.44268
31162;BME280;17796;49.296;-117.656;2023-01-26T21:12:43;97300;;;3.77123;58.6627
31162;BME280;17796;49.296;-117.656;2023-01-26T21:27:46;97300;;;2.84233;59.3799
31162;BME280;17796;49.296;-117.656;2023-01-26T21:42:52;97300;;;2.2815;60.81368
31162;BME280;17796;49.296;-117.656;2023-01-26T21:57:56;97300;;;2.93252;61.14761
31162;BME280;17796;49.296;-117.656;2023-01-26T22:13:00;97300;;;1.72385;62.35324
31162;BME280;17796;49.296;-117.656;2023-01-26T22:28:04;97300;;;2.0592;63.32084
31162;BME280;17796;49.296;-117.656;2023-01-26T22:43:09;97300;;;2.61082;62.69205
31162;BME280;17796;49.296;-117.656;2023-01-26T22:58:13;97300;;;1.59587;65.32884
31162;BME280;17796;49.296;-117.656;2023-01-26T23:13:17;97300;;;1.83944;66.21441
31162;BME280;17796;49.296;-117.656;2023-01-26T23:28:21;97300;;;1.48789;65.97071
31162;BME280;17796;49.296;-117.656;2023-01-26T23:43:27;97300;;;1.94805;64.93894
31162;BME280;17796;49.296;-117.656;2023-01-26T23:58:30;97300;;;1.47043;65.17762
